Time;durP1;ratioP1;P1;durP2;ratioP2;P2;SDS_P1;SDS_P2;PMS_P1;PMS_P2;Temp;Humidity;BMP_temperature;BMP_pressure;BME280_temperature;BME280_humidity;BME280_pressure;Samples;Min_cycle;Max_cycle;Signal;HPM_P1;HPM_P2
2022/03/18 00:01:03;;;;;;;39.05;18.77;;;;;;;;;;5105065;28;20036;-80
2022/03/18 00:03:29;;;;;;;36.75;18.95;;;;;;;;;;5103717;28;20067;-79
2022/03/18 00:05:55;;;;;;;43.05;19.42;;;;;;;;;;5106150;28;20050;-80
2022/03/18 00:08:21;;;;;;;43.38;19.33;;;;;;;;;;5106260;28;20100;-80
2022/03/18 00:10:47;;;;;;;39.92;18.95;;;;;;;;;;5085447;28;20032;-80
2022/03/18 00:13:13;;;;;;;35.15;19.13;;;;;;;;;;5103809;28;20062;-80
2022/03/18 00:15:39;;;;;;;36.58;18.10;;;;;;;;;;5090241;28;20048;-81
2022/03/18 00:18:05;;;;;;;36.28;17.38;;;;;;;;;;5096651;28;20100;-80
2022/03/18 00:20:31;;;;;;;33.63;17.38;;;;;;;;;;5121573;28;20051;-79
2022/03/18 00:22:57;;;;;;;40.88;18.95;;;;;;;;;;5112279;28;20040;-78
2022/03/18 00:25:23;;;;;;;42.00;19.10;;;;;;;;;;5126739;28;20067;-80
2022/03/18 00:27:49;;;;;;;41.85;18.48;;;;;;;;;;5123234;28;20039;-80
2022/03/18 00:30:16;;;;;;;37.05;18.17;;;;;;;;;;5102937;28;20118;-80
2022/03/18 00:32:42;;;;;;;31.40;18.00;;;;;;;;;;5098031;28;20068;-80
2022/03/18 00:35:08;;;;;;;40.22;18.15;;;;;;;;;;5114937;28;20376;-79
2022/03/18 00:37:37;;;;;;;38.97;19.13;;;;;;;;;;5099638;28;20387;-81
2022/03/18 00:40:04;;;;;;;36.80;19.15;;;;;;;;;;5098328;28;20040;-81
2022/03/18 00:42:31;;;;;;;42.63;18.70;;;;;;;;;;5097838;28;20608;-80
2022/03/18 00:44:58;;;;;;;41.42;19.35;;;;;;;;;;5101510;28;20044;-81
2022/03/18 00:52:52;;;;;;;42.35;21.23;;;;;;;;;;5117555;28;20044;-80
2022/03/18 00:55:19;;;;;;;39.92;21.20;;;;;;;;;;5123170;28;20485;-79
2022/03/18 00:57:44;;;;;;;37.95;19.30;;;;;;;;;;5111702;28;20024;-79
2022/03/18 01:00:11;;;;;;;39.00;19.98;;;;;;;;;;5124516;28;20177;-79
2022/03/18 01:02:37;;;;;;;38.60;18.42;;;;;;;;;;5124754;28;20090;-80
2022/03/18 01:05:03;;;;;;;39.90;18.75;;;;;;;;;;5107502;28;20047;-79
2022/03/18 01:07:29;;;;;;;37.00;18.13;;;;;;;;;;5107798;28;20039;-81
2022/03/18 01:09:55;;;;;;;33.65;18.15;;;;;;;;;;5110900;28;20032;-79
2022/03/18 01:12:21;;;;;;;33.88;19.00;;;;;;;;;;5108185;28;20063;-81
2022/03/18 01:14:47;;;;;;;35.92;19.52;;;;;;;;;;5101692;28;20034;-82
2022/03/18 01:17:13;;;;;;;40.90;18.23;;;;;;;;;;5121878;28;20066;-80
2022/03/18 01:19:40;;;;;;;39.53;18.08;;;;;;;;;;5105798;28;20036;-82
2022/03/18 01:22:09;;;;;;;40.22;19.55;;;;;;;;;;5107879;28;20062;-82
2022/03/18 01:24:35;;;;;;;43.30;20.88;;;;;;;;;;5123205;28;20039;-83
2022/03/18 01:27:01;;;;;;;42.75;21.67;;;;;;;;;;5106157;28;20489;-80
2022/03/18 01:29:27;;;;;;;41.15;21.02;;;;;;;;;;5108109;28;20044;-81
2022/03/18 01:31:53;;;;;;;41.70;22.45;;;;;;;;;;5107030;28;20261;-83
2022/03/18 01:34:19;;;;;;;45.60;23.80;;;;;;;;;;5105323;28;20100;-82
2022/03/18 01:36:45;;;;;;;55.10;26.17;;;;;;;;;;5105104;28;20040;-81
2022/03/18 01:39:12;;;;;;;53.25;27.45;;;;;;;;;;5125661;28;20400;-80
2022/03/18 01:41:39;;;;;;;50.17;24.75;;;;;;;;;;5106349;28;20110;-81
2022/03/18 01:44:05;;;;;;;41.63;23.17;;;;;;;;;;5112928;28;20036;-81
2022/03/18 01:46:31;;;;;;;40.33;22.15;;;;;;;;;;5083736;28;20122;-82
2022/03/18 01:48:57;;;;;;;44.25;22.73;;;;;;;;;;5101168;28;20066;-83
2022/03/18 01:51:23;;;;;;;42.38;22.88;;;;;;;;;;5083687;28;20371;-82
2022/03/18 01:54:44;;;;;;;46.60;23.33;;;;;;;;;;5105304;28;20092;-81
2022/03/18 01:56:38;;;;;;;44.85;22.90;;;;;;;;;;5107071;28;20043;-81
2022/03/18 01:59:04;;;;;;;40.88;22.17;;;;;;;;;;5084618;28;20417;-82
2022/03/18 02:01:30;;;;;;;50.65;24.38;;;;;;;;;;5101149;28;20032;-81
2022/03/18 02:03:56;;;;;;;46.97;23.70;;;;;;;;;;5103172;28;20074;-82
2022/03/18 02:06:23;;;;;;;40.08;22.08;;;;;;;;;;5106178;28;20040;-81
2022/03/18 02:08:49;;;;;;;46.75;21.90;;;;;;;;;;5108244;28;20043;-81
2022/03/18 02:11:15;;;;;;;42.90;21.77;;;;;;;;;;5093705;28;20095;-80
2022/03/18 02:13:41;;;;;;;40.70;21.00;;;;;;;;;;5092001;28;20036;-80
2022/03/18 02:16:07;;;;;;;39.40;21.08;;;;;;;;;;5108630;28;20068;-81
2022/03/18 02:18:33;;;;;;;37.08;21.38;;;;;;;;;;5109543;28;20115;-81
2022/03/18 02:20:59;;;;;;;45.65;22.55;;;;;;;;;;5093357;28;20047;-80
2022/03/18 02:23:25;;;;;;;41.10;21.92;;;;;;;;;;5092273;28;20043;-82
2022/03/18 02:25:51;;;;;;;50.63;23.70;;;;;;;;;;5084432;28;20059;-82
2022/03/18 02:28:18;;;;;;;43.90;22.42;;;;;;;;;;5083360;28;20032;-82
2022/03/18 02:30:44;;;;;;;41.92;21.20;;;;;;;;;;5091014;28;20063;-80
2022/03/18 02:33:11;;;;;;;41.70;21.77;;;;;;;;;;5089675;28;20055;-80
2022/03/18 02:35:37;;;;;;;43.03;22.30;;;;;;;;;;5089980;28;20047;-80
2022/03/18 02:38:03;;;;;;;43.90;21.05;;;;;;;;;;5090108;28;20040;-81
2022/03/18 02:40:29;;;;;;;42.83;22.95;;;;;;;;;;5100084;28;20039;-82
2022/03/18 02:42:55;;;;;;;47.33;23.58;;;;;;;;;;5099188;28;20039;-82
2022/03/18 02:45:22;;;;;;;44.88;22.17;;;;;;;;;;5099711;28;20097;-81
2022/03/18 02:47:48;;;;;;;40.35;21.48;;;;;;;;;;5099683;28;20413;-81
2022/03/18 02:50:15;;;;;;;43.60;21.80;;;;;;;;;;5082430;28;20421;-82
2022/03/18 02:52:41;;;;;;;47.10;23.45;;;;;;;;;;5081897;28;20038;-82
2022/03/18 02:55:07;;;;;;;49.47;26.85;;;;;;;;;;5082377;28;20043;-82
2022/03/18 02:57:34;;;;;;;50.00;25.65;;;;;;;;;;5081637;28;20522;-81
2022/03/18 03:00:00;;;;;;;47.05;25.98;;;;;;;;;;5104573;28;20042;-80
2022/03/18 03:02:26;;;;;;;54.08;26.33;;;;;;;;;;5106519;28;20060;-81
2022/03/18 03:10:22;;;;;;;61.92;28.63;;;;;;;;;;5105917;28;20036;-82
2022/03/18 03:12:48;;;;;;;59.40;29.85;;;;;;;;;;5085480;28;20066;-81
2022/03/18 03:15:14;;;;;;;52.97;27.35;;;;;;;;;;5093965;28;20075;-81
2022/03/18 03:17:40;;;;;;;49.25;26.50;;;;;;;;;;5084896;28;20114;-83
2022/03/18 03:20:09;;;;;;;57.65;28.95;;;;;;;;;;5082643;28;20039;-81
2022/03/18 03:22:35;;;;;;;56.97;29.55;;;;;;;;;;5103157;28;20044;-80
2022/03/18 03:25:02;;;;;;;48.03;26.85;;;;;;;;;;5099534;28;20040;-81
2022/03/18 03:27:31;;;;;;;50.92;26.42;;;;;;;;;;5098535;28;20066;-81
2022/03/18 03:30:00;;;;;;;50.70;26.42;;;;;;;;;;5099322;28;20111;-81
2022/03/18 03:32:27;;;;;;;45.38;24.95;;;;;;;;;;5100114;28;20143;-79
2022/03/18 03:34:54;;;;;;;43.65;24.33;;;;;;;;;;5116435;28;20110;-80
2022/03/18 03:37:20;;;;;;;46.33;23.92;;;;;;;;;;5098764;28;20059;-81
2022/03/18 03:39:46;;;;;;;44.10;24.00;;;;;;;;;;5120812;28;20035;-79
2022/03/18 03:42:12;;;;;;;51.38;25.88;;;;;;;;;;5124895;28;20050;-80
2022/03/18 03:44:38;;;;;;;48.65;24.35;;;;;;;;;;5128845;28;20047;-81
2022/03/18 03:47:04;;;;;;;46.70;23.90;;;;;;;;;;5126848;28;20078;-80
2022/03/18 03:49:30;;;;;;;45.28;24.17;;;;;;;;;;5127121;28;20044;-80
2022/03/18 03:51:56;;;;;;;53.53;24.42;;;;;;;;;;5108205;28;20040;-80
2022/03/18 03:54:23;;;;;;;51.03;25.98;;;;;;;;;;5108204;28;20039;-80
2022/03/18 03:56:49;;;;;;;49.90;23.48;;;;;;;;;;5125492;28;20499;-79
2022/03/18 03:59:15;;;;;;;52.30;25.10;;;;;;;;;;5105136;28;20110;-81
2022/03/18 04:01:41;;;;;;;51.53;24.95;;;;;;;;;;5105434;28;20039;-80
2022/03/18 04:04:07;;;;;;;54.53;25.50;;;;;;;;;;5126041;28;20059;-80
2022/03/18 04:06:33;;;;;;;45.22;24.33;;;;;;;;;;5112058;28;20046;-80
2022/03/18 04:08:59;;;;;;;53.40;25.35;;;;;;;;;;5129057;28;20059;-80
2022/03/18 04:11:25;;;;;;;48.15;24.38;;;;;;;;;;5111880;28;20027;-80
2022/03/18 04:13:51;;;;;;;50.85;26.13;;;;;;;;;;5112205;28;20049;-80
2022/03/18 04:16:17;;;;;;;52.97;25.75;;;;;;;;;;5128343;28;20032;-79
2022/03/18 04:18:43;;;;;;;48.17;25.92;;;;;;;;;;5112529;28;20065;-80
2022/03/18 04:21:09;;;;;;;50.83;24.75;;;;;;;;;;5129014;28;20058;-80
2022/03/18 04:23:35;;;;;;;44.35;24.75;;;;;;;;;;5113071;28;20068;-80
2022/03/18 04:26:01;;;;;;;52.05;25.92;;;;;;;;;;5113125;28;20035;-80
2022/03/18 04:28:27;;;;;;;46.17;25.35;;;;;;;;;;5133503;28;20055;-80
2022/03/18 04:30:53;;;;;;;54.72;25.70;;;;;;;;;;5116132;28;20031;-80
2022/03/18 04:33:19;;;;;;;57.42;27.17;;;;;;;;;;5111284;28;20046;-81
2022/03/18 04:35:45;;;;;;;51.00;26.55;;;;;;;;;;5111516;28;20057;-81
2022/03/18 04:38:11;;;;;;;55.78;28.67;;;;;;;;;;5110903;28;20043;-80
2022/03/18 04:40:37;;;;;;;56.17;26.25;;;;;;;;;;5111597;28;20031;-81
2022/03/18 04:43:03;;;;;;;51.58;27.15;;;;;;;;;;5111019;28;20035;-80
2022/03/18 04:45:29;;;;;;;60.35;30.73;;;;;;;;;;5110178;28;20050;-79
2022/03/18 04:47:55;;;;;;;63.25;28.20;;;;;;;;;;5129599;28;20039;-80
2022/03/18 04:50:21;;;;;;;61.67;32.05;;;;;;;;;;5109852;28;20042;-82
2022/03/18 04:52:47;;;;;;;61.83;31.70;;;;;;;;;;5107405;28;20122;-80
2022/03/18 04:55:13;;;;;;;69.55;35.63;;;;;;;;;;5109945;28;20526;-79
2022/03/18 04:57:39;;;;;;;69.22;35.47;;;;;;;;;;5110056;28;20467;-81
2022/03/18 05:00:05;;;;;;;72.18;35.50;;;;;;;;;;5110469;28;20054;-80
2022/03/18 05:02:31;;;;;;;66.28;34.25;;;;;;;;;;5094625;28;20086;-81
2022/03/18 05:04:57;;;;;;;66.72;35.05;;;;;;;;;;5109434;28;20039;-81
2022/03/18 05:07:24;;;;;;;62.42;34.47;;;;;;;;;;5088416;28;20055;-82
2022/03/18 05:09:50;;;;;;;67.65;35.75;;;;;;;;;;5102332;28;20036;-82
2022/03/18 05:12:17;;;;;;;68.30;34.13;;;;;;;;;;5084251;28;20444;-81
2022/03/18 05:14:43;;;;;;;70.88;33.08;;;;;;;;;;5101146;28;20356;-81
2022/03/18 05:17:09;;;;;;;65.47;32.45;;;;;;;;;;5101618;28;20052;-81
2022/03/18 05:19:36;;;;;;;64.65;32.78;;;;;;;;;;5102564;28;20051;-81
2022/03/18 05:22:02;;;;;;;65.93;33.42;;;;;;;;;;5102512;28;20040;-81
2022/03/18 05:24:28;;;;;;;64.95;33.67;;;;;;;;;;5089110;28;20051;-84
2022/03/18 05:26:54;;;;;;;76.07;35.67;;;;;;;;;;5084042;28;20122;-80
2022/03/18 05:29:21;;;;;;;66.13;35.63;;;;;;;;;;5082273;28;20036;-79
2022/03/18 05:31:47;;;;;;;62.55;34.92;;;;;;;;;;5117168;28;20054;-79
2022/03/18 05:34:13;;;;;;;67.88;34.28;;;;;;;;;;5097990;28;20040;-80
2022/03/18 05:36:40;;;;;;;64.78;36.92;;;;;;;;;;5102974;28;20428;-80
2022/03/18 05:39:06;;;;;;;65.15;33.20;;;;;;;;;;5081916;28;20115;-80
2022/03/18 05:41:32;;;;;;;72.25;34.38;;;;;;;;;;5081684;28;20040;-80
2022/03/18 05:43:58;;;;;;;69.55;34.47;;;;;;;;;;5098543;28;20493;-80
2022/03/18 05:46:24;;;;;;;65.22;32.70;;;;;;;;;;5098734;28;20044;-79
2022/03/18 05:48:50;;;;;;;61.97;32.33;;;;;;;;;;5081170;28;20087;-80
2022/03/18 05:51:16;;;;;;;55.33;30.58;;;;;;;;;;5098131;28;20661;-79
2022/03/18 05:53:42;;;;;;;58.30;29.73;;;;;;;;;;5083923;28;20070;-78
2022/03/18 05:58:53;;;;;;;62.22;32.70;;;;;;;;;;5098942;28;20036;-80
2022/03/18 06:01:19;;;;;;;53.83;30.65;;;;;;;;;;5105256;28;20119;-80
2022/03/18 06:03:45;;;;;;;55.72;29.10;;;;;;;;;;5087683;28;20055;-81
2022/03/18 06:06:11;;;;;;;69.43;31.13;;;;;;;;;;5104089;28;20040;-81
2022/03/18 06:14:07;;;;;;;53.42;27.52;;;;;;;;;;5105226;28;20044;-79
2022/03/18 06:16:33;;;;;;;61.97;31.05;;;;;;;;;;5090277;28;20109;-80
2022/03/18 06:18:59;;;;;;;60.85;30.27;;;;;;;;;;5102389;28;20760;-81
2022/03/18 06:21:25;;;;;;;53.15;30.73;;;;;;;;;;5099593;28;20499;-82
2022/03/18 06:23:51;;;;;;;55.67;29.15;;;;;;;;;;5080794;28;20082;-81
2022/03/18 06:26:17;;;;;;;65.65;36.13;;;;;;;;;;5082202;28;20036;-80
2022/03/18 06:28:43;;;;;;;84.13;44.22;;;;;;;;;;5102695;28;20042;-81
2022/03/18 06:31:09;;;;;;;71.40;37.10;;;;;;;;;;5101713;28;20059;-81
2022/03/18 06:33:43;;;;;;;73.90;37.25;;;;;;;;;;5100567;28;20336;-81
2022/03/18 06:36:09;;;;;;;62.95;35.88;;;;;;;;;;5102151;28;20036;-81
2022/03/18 06:38:35;;;;;;;70.40;37.92;;;;;;;;;;5106185;28;20066;-82
2022/03/18 06:41:01;;;;;;;68.78;36.28;;;;;;;;;;5107351;28;20039;-81
2022/03/18 06:43:27;;;;;;;71.75;36.72;;;;;;;;;;5098504;28;20067;-83
2022/03/18 06:45:53;;;;;;;66.50;35.35;;;;;;;;;;5080515;28;20039;-82
2022/03/18 06:48:19;;;;;;;73.57;38.75;;;;;;;;;;5099147;28;20040;-80
2022/03/18 06:50:45;;;;;;;74.75;37.17;;;;;;;;;;5097446;28;20370;-83
2022/03/18 06:53:11;;;;;;;67.38;36.42;;;;;;;;;;5096660;28;20109;-82
2022/03/18 06:55:37;;;;;;;73.75;37.10;;;;;;;;;;5098064;28;20391;-81
2022/03/18 06:58:03;;;;;;;76.07;37.67;;;;;;;;;;5095541;28;20040;-83
2022/03/18 07:00:29;;;;;;;90.32;49.55;;;;;;;;;;5102021;28;20034;-82
2022/03/18 07:02:55;;;;;;;84.55;45.47;;;;;;;;;;5115086;28;20060;-82
2022/03/18 07:05:21;;;;;;;83.15;44.75;;;;;;;;;;5106594;28;20092;-82
2022/03/18 07:07:50;;;;;;;83.07;47.33;;;;;;;;;;5106357;28;20507;-82
2022/03/18 07:10:16;;;;;;;93.35;47.47;;;;;;;;;;5104882;28;20440;-82
2022/03/18 07:12:42;;;;;;;87.18;46.75;;;;;;;;;;5105260;28;20100;-82
2022/03/18 07:15:08;;;;;;;85.38;45.38;;;;;;;;;;5086949;28;20032;-81
2022/03/18 07:20:19;;;;;;;84.20;46.38;;;;;;;;;;5104065;28;20044;-81
2022/03/18 07:22:45;;;;;;;95.30;51.95;;;;;;;;;;5087864;28;20461;-81
2022/03/18 07:25:11;;;;;;;97.45;51.70;;;;;;;;;;5104122;28;20040;-81
2022/03/18 07:27:37;;;;;;;98.13;50.33;;;;;;;;;;5103346;28;20044;-80
2022/03/18 07:30:04;;;;;;;94.55;50.17;;;;;;;;;;5105090;28;20081;-81
2022/03/18 07:32:30;;;;;;;94.18;51.10;;;;;;;;;;5088180;28;20091;-81
2022/03/18 07:34:56;;;;;;;98.10;53.30;;;;;;;;;;5104262;28;20036;-82
2022/03/18 07:37:22;;;;;;;99.47;55.22;;;;;;;;;;5087154;28;20073;-82
2022/03/18 07:39:48;;;;;;;112.35;57.22;;;;;;;;;;5103267;28;20413;-79
2022/03/18 07:42:14;;;;;;;100.85;55.92;;;;;;;;;;5103642;28;20101;-83
2022/03/18 07:44:40;;;;;;;96.93;55.10;;;;;;;;;;5086924;28;20044;-81
2022/03/18 07:47:06;;;;;;;99.85;56.72;;;;;;;;;;5089625;28;20044;-82
2022/03/18 07:49:32;;;;;;;103.38;56.80;;;;;;;;;;5111519;28;20044;-81
2022/03/18 07:51:58;;;;;;;95.90;54.22;;;;;;;;;;5090628;28;20040;-81
2022/03/18 07:54:24;;;;;;;91.28;50.78;;;;;;;;;;5109962;28;20036;-81
2022/03/18 07:56:51;;;;;;;90.35;47.22;;;;;;;;;;5113862;28;20040;-81
2022/03/18 07:59:18;;;;;;;84.53;45.17;;;;;;;;;;5102797;28;20118;-81
2022/03/18 08:01:44;;;;;;;81.88;44.80;;;;;;;;;;5084423;28;20462;-80
2022/03/18 08:04:12;;;;;;;71.18;40.28;;;;;;;;;;5101572;28;20422;-80
2022/03/18 08:06:39;;;;;;;76.55;39.45;;;;;;;;;;5089154;28;20081;-81
2022/03/18 08:09:05;;;;;;;69.45;39.80;;;;;;;;;;5105925;28;20123;-80
2022/03/18 08:11:31;;;;;;;69.43;34.22;;;;;;;;;;5107809;28;20048;-81
2022/03/18 08:13:57;;;;;;;65.97;34.03;;;;;;;;;;5091089;28;20035;-81
2022/03/18 08:16:23;;;;;;;64.20;31.70;;;;;;;;;;5108259;28;20040;-82
2022/03/18 08:18:49;;;;;;;54.63;30.55;;;;;;;;;;5115234;28;20028;-79
2022/03/18 08:21:15;;;;;;;54.78;29.38;;;;;;;;;;5100094;28;20044;-79
2022/03/18 08:23:41;;;;;;;58.63;30.02;;;;;;;;;;5094822;28;20055;-81
2022/03/18 08:26:07;;;;;;;60.35;30.30;;;;;;;;;;5092999;28;20050;-80
2022/03/18 08:28:33;;;;;;;50.85;28.27;;;;;;;;;;5100137;28;20043;-79
2022/03/18 08:30:59;;;;;;;53.65;27.95;;;;;;;;;;5117675;28;20024;-81
2022/03/18 08:33:26;;;;;;;48.75;25.58;;;;;;;;;;5101248;28;20024;-81
2022/03/18 08:35:52;;;;;;;43.92;24.33;;;;;;;;;;5121519;28;20046;-80
2022/03/18 08:38:18;;;;;;;44.22;21.58;;;;;;;;;;5094731;28;20040;-80
2022/03/18 08:40:44;;;;;;;39.90;20.33;;;;;;;;;;5106159;28;20138;-83
2022/03/18 08:43:10;;;;;;;36.38;17.92;;;;;;;;;;5100015;28;20028;-80
2022/03/18 08:45:36;;;;;;;32.08;15.57;;;;;;;;;;5098393;28;20447;-81
2022/03/18 08:48:02;;;;;;;31.23;15.63;;;;;;;;;;5110249;28;20104;-81
2022/03/18 08:50:28;;;;;;;31.48;14.90;;;;;;;;;;5092429;28;20062;-80
2022/03/18 08:52:55;;;;;;;22.98;11.85;;;;;;;;;;5094107;28;20051;-80
2022/03/18 08:55:21;;;;;;;24.50;12.98;;;;;;;;;;5096064;28;20040;-80
2022/03/18 08:57:47;;;;;;;28.80;13.45;;;;;;;;;;5102926;28;20027;-81
2022/03/18 09:00:15;;;;;;;26.13;11.93;;;;;;;;;;5102143;28;20040;-80
2022/03/18 09:02:41;;;;;;;24.67;10.88;;;;;;;;;;5118741;28;20028;-79
2022/03/18 09:05:07;;;;;;;21.73;9.68;;;;;;;;;;5119375;28;20044;-81
2022/03/18 09:07:33;;;;;;;22.65;8.90;;;;;;;;;;5118273;28;20040;-81
2022/03/18 09:09:59;;;;;;;21.88;8.18;;;;;;;;;;5118512;28;20035;-81
2022/03/18 09:12:25;;;;;;;23.35;7.00;;;;;;;;;;5118011;28;20043;-80
2022/03/18 09:14:52;;;;;;;13.57;5.90;;;;;;;;;;5112368;28;20036;-81
2022/03/18 09:17:18;;;;;;;18.35;6.50;;;;;;;;;;5111785;28;20044;-81
2022/03/18 09:19:44;;;;;;;14.95;6.15;;;;;;;;;;5110923;28;20054;-81
2022/03/18 09:22:11;;;;;;;17.27;5.63;;;;;;;;;;5110727;28;20040;-82
2022/03/18 09:24:37;;;;;;;14.90;5.28;;;;;;;;;;5111766;28;20040;-81
2022/03/18 09:27:03;;;;;;;12.25;4.07;;;;;;;;;;5110512;28;20055;-81
2022/03/18 09:29:29;;;;;;;16.08;4.75;;;;;;;;;;5093494;28;20119;-81
2022/03/18 09:31:55;;;;;;;13.40;4.00;;;;;;;;;;5092505;28;20028;-81
2022/03/18 09:34:24;;;;;;;13.00;3.78;;;;;;;;;;5093009;28;20036;-81
2022/03/18 09:36:51;;;;;;;13.38;3.50;;;;;;;;;;5108404;28;20046;-81
2022/03/18 09:39:17;;;;;;;10.60;3.15;;;;;;;;;;5092988;28;20347;-80
2022/03/18 09:41:43;;;;;;;10.23;3.40;;;;;;;;;;5092782;28;20084;-80
2022/03/18 09:44:10;;;;;;;10.45;3.67;;;;;;;;;;5110325;28;20084;-81
2022/03/18 09:46:36;;;;;;;10.48;3.35;;;;;;;;;;5107867;28;20043;-81
2022/03/18 09:49:02;;;;;;;9.70;3.38;;;;;;;;;;5096633;28;20084;-78
2022/03/18 09:51:29;;;;;;;8.52;2.97;;;;;;;;;;5120223;28;20053;-81
2022/03/18 09:53:55;;;;;;;9.70;2.92;;;;;;;;;;5099415;28;20063;-81
2022/03/18 09:56:21;;;;;;;9.45;2.78;;;;;;;;;;5109888;28;20047;-80
2022/03/18 09:58:48;;;;;;;7.20;2.72;;;;;;;;;;5114244;28;20050;-81
2022/03/18 10:01:14;;;;;;;9.10;3.17;;;;;;;;;;5102580;28;20051;-81
2022/03/18 10:03:40;;;;;;;11.30;3.38;;;;;;;;;;5102971;28;20082;-80
2022/03/18 10:06:06;;;;;;;10.02;3.13;;;;;;;;;;5105012;28;20051;-80
2022/03/18 10:08:36;;;;;;;7.07;3.35;;;;;;;;;;5108671;28;20059;-80
2022/03/18 10:11:22;;;;;;;13.40;3.78;;;;;;;;;;5110385;28;20047;-81
2022/03/18 10:13:52;;;;;;;10.70;3.80;;;;;;;;;;5111626;28;20094;-81
2022/03/18 10:16:38;;;;;;;8.48;3.15;;;;;;;;;;5114040;28;20040;-79
2022/03/18 10:19:13;;;;;;;10.68;4.00;;;;;;;;;;5114344;28;20040;-82
2022/03/18 10:21:58;;;;;;;11.55;3.80;;;;;;;;;;5118537;28;20123;-81
2022/03/18 10:24:27;;;;;;;10.38;3.05;;;;;;;;;;5120024;28;20040;-79
2022/03/18 10:26:53;;;;;;;6.95;2.38;;;;;;;;;;5119412;28;20051;-79
2022/03/18 10:29:19;;;;;;;6.53;2.10;;;;;;;;;;5115409;28;20032;-78
2022/03/18 10:31:58;;;;;;;3.03;1.45;;;;;;;;;;5110264;28;20448;-79
2022/03/18 10:37:09;;;;;;;5.47;1.42;;;;;;;;;;5110653;28;20066;-79
2022/03/18 10:39:39;;;;;;;6.28;1.70;;;;;;;;;;5095182;28;20040;-80
2022/03/18 10:42:14;;;;;;;6.50;1.40;;;;;;;;;;5110997;28;20085;-81
2022/03/18 10:44:51;;;;;;;5.22;1.48;;;;;;;;;;5093308;28;20040;-81
2022/03/18 10:47:23;;;;;;;3.78;1.30;;;;;;;;;;5110137;28;20044;-80
2022/03/18 10:49:49;;;;;;;4.97;1.95;;;;;;;;;;5109983;28;20062;-80
2022/03/18 10:52:15;;;;;;;7.20;1.83;;;;;;;;;;5109999;28;20040;-79
2022/03/18 10:54:41;;;;;;;10.98;2.22;;;;;;;;;;5111722;28;20043;-79
2022/03/18 10:57:07;;;;;;;7.07;1.88;;;;;;;;;;5094559;28;20040;-79
2022/03/18 10:59:35;;;;;;;5.13;1.85;;;;;;;;;;5112381;28;20032;-79
2022/03/18 11:02:01;;;;;;;7.60;2.10;;;;;;;;;;5113548;28;20088;-78
2022/03/18 11:04:27;;;;;;;4.60;1.50;;;;;;;;;;5113582;28;20051;-79
2022/03/18 11:12:25;;;;;;;4.55;1.70;;;;;;;;;;5112881;28;20036;-78
2022/03/18 11:14:57;;;;;;;5.38;1.73;;;;;;;;;;5112038;28;20066;-78
2022/03/18 11:17:24;;;;;;;4.90;1.80;;;;;;;;;;5095740;28;20044;-79
2022/03/18 11:19:53;;;;;;;8.10;1.98;;;;;;;;;;5095307;28;20035;-80
2022/03/18 11:22:21;;;;;;;5.25;1.83;;;;;;;;;;5112667;28;20032;-80
2022/03/18 11:24:47;;;;;;;7.25;2.30;;;;;;;;;;5112870;28;20040;-80
2022/03/18 11:27:13;;;;;;;5.00;2.40;;;;;;;;;;5094213;28;20044;-80
2022/03/18 11:29:40;;;;;;;4.90;2.08;;;;;;;;;;5093482;28;20051;-81
2022/03/18 11:32:12;;;;;;;5.85;2.25;;;;;;;;;;5111555;28;20036;-80
2022/03/18 11:34:45;;;;;;;6.15;1.98;;;;;;;;;;5111751;28;20056;-81
2022/03/18 11:37:11;;;;;;;5.20;2.20;;;;;;;;;;5107832;28;20047;-79
2022/03/18 11:39:38;;;;;;;5.22;1.90;;;;;;;;;;5107875;28;20036;-80
2022/03/18 11:42:10;;;;;;;5.60;1.92;;;;;;;;;;5089711;28;20374;-79
2022/03/18 11:44:46;;;;;;;5.80;2.10;;;;;;;;;;5107782;28;20040;-79
2022/03/18 11:47:30;;;;;;;5.53;2.30;;;;;;;;;;5094109;28;20043;-77
2022/03/18 11:49:57;;;;;;;7.20;2.17;;;;;;;;;;5117524;28;20040;-78
2022/03/18 11:52:23;;;;;;;7.93;2.83;;;;;;;;;;5098989;28;20036;-80
2022/03/18 11:54:59;;;;;;;5.50;2.22;;;;;;;;;;5095431;28;20050;-80
2022/03/18 11:57:29;;;;;;;7.55;2.88;;;;;;;;;;5090419;28;20043;-80
2022/03/18 11:59:57;;;;;;;5.35;2.67;;;;;;;;;;5090665;28;20091;-80
2022/03/18 12:02:31;;;;;;;6.03;2.20;;;;;;;;;;5106768;28;20082;-79
2022/03/18 12:04:58;;;;;;;9.70;2.70;;;;;;;;;;5089545;28;20044;-80
2022/03/18 12:07:32;;;;;;;7.32;2.72;;;;;;;;;;5088901;28;20044;-80
2022/03/18 12:10:05;;;;;;;6.25;2.80;;;;;;;;;;5092780;28;20103;-80
2022/03/18 12:12:36;;;;;;;7.85;2.90;;;;;;;;;;5114839;28;20043;-80
2022/03/18 12:15:07;;;;;;;9.50;3.25;;;;;;;;;;5094333;28;20514;-79
2022/03/18 12:17:40;;;;;;;6.50;2.72;;;;;;;;;;5093851;28;20044;-80
2022/03/18 12:20:06;;;;;;;8.45;2.92;;;;;;;;;;5093009;28;20046;-79
2022/03/18 12:22:33;;;;;;;7.82;2.95;;;;;;;;;;5110264;28;20048;-80
2022/03/18 12:24:59;;;;;;;7.45;3.20;;;;;;;;;;5092278;28;20348;-81
2022/03/18 12:27:36;;;;;;;9.48;2.88;;;;;;;;;;5110790;28;20044;-81
2022/03/18 12:30:02;;;;;;;6.72;2.80;;;;;;;;;;5111696;28;20035;-82
2022/03/18 12:32:28;;;;;;;6.50;2.55;;;;;;;;;;5094042;28;20043;-81
2022/03/18 12:34:54;;;;;;;7.55;2.90;;;;;;;;;;5113596;28;20036;-79
2022/03/18 12:37:22;;;;;;;10.40;2.72;;;;;;;;;;5097141;28;20020;-80
2022/03/18 12:40:01;;;;;;;7.47;2.95;;;;;;;;;;5107299;28;20044;-81
2022/03/18 12:42:27;;;;;;;6.88;2.92;;;;;;;;;;5110049;28;20036;-82
2022/03/18 12:44:59;;;;;;;6.75;3.08;;;;;;;;;;5091010;28;20044;-81
2022/03/18 12:47:26;;;;;;;7.53;3.13;;;;;;;;;;5094198;28;20043;-80
2022/03/18 12:49:52;;;;;;;6.30;3.00;;;;;;;;;;5094175;28;20520;-81
2022/03/18 12:52:19;;;;;;;7.63;3.20;;;;;;;;;;5118370;28;20040;-82
2022/03/18 12:55:04;;;;;;;6.43;3.15;;;;;;;;;;5104218;28;20044;-80
2022/03/18 12:57:32;;;;;;;6.95;3.00;;;;;;;;;;5116420;28;20040;-79
2022/03/18 12:59:59;;;;;;;6.32;2.95;;;;;;;;;;5112277;28;20036;-81
2022/03/18 13:02:25;;;;;;;6.45;2.95;;;;;;;;;;5116433;28;20076;-80
2022/03/18 13:04:58;;;;;;;7.50;2.65;;;;;;;;;;5120862;28;20028;-81
2022/03/18 13:07:27;;;;;;;9.02;3.05;;;;;;;;;;5116683;28;20058;-81
2022/03/18 13:09:54;;;;;;;9.30;3.22;;;;;;;;;;5098183;28;20050;-82
2022/03/18 13:12:26;;;;;;;7.60;2.83;;;;;;;;;;5093237;28;20115;-81
2022/03/18 13:14:56;;;;;;;4.68;2.65;;;;;;;;;;5108372;28;20043;-79
2022/03/18 13:17:22;;;;;;;6.40;2.38;;;;;;;;;;5111145;28;20040;-79
2022/03/18 13:19:50;;;;;;;7.35;2.60;;;;;;;;;;5112821;28;20078;-80
2022/03/18 13:22:20;;;;;;;5.65;2.42;;;;;;;;;;5089049;28;20068;-80
2022/03/18 13:24:47;;;;;;;6.18;2.50;;;;;;;;;;5107369;28;20040;-80
2022/03/18 13:27:13;;;;;;;7.60;2.80;;;;;;;;;;5090561;28;20070;-79
2022/03/18 13:35:10;;;;;;;6.78;3.08;;;;;;;;;;5115074;28;20047;-81
2022/03/18 13:37:36;;;;;;;7.72;3.00;;;;;;;;;;5112275;28;20115;-79
2022/03/18 13:40:28;;;;;;;7.40;3.25;;;;;;;;;;5111517;28;20059;-78
2022/03/18 13:43:03;;;;;;;7.93;2.90;;;;;;;;;;5117660;28;20048;-79
2022/03/18 13:45:29;;;;;;;7.60;2.95;;;;;;;;;;5103849;28;20028;-79
2022/03/18 13:47:55;;;;;;;7.30;2.88;;;;;;;;;;5113179;28;20075;-80
2022/03/18 13:50:21;;;;;;;5.28;2.60;;;;;;;;;;5109055;28;20036;-79
2022/03/18 13:52:48;;;;;;;6.93;2.83;;;;;;;;;;5092774;28;20031;-79
2022/03/18 13:55:31;;;;;;;7.25;2.67;;;;;;;;;;5092864;28;20043;-79
2022/03/18 13:57:57;;;;;;;9.57;3.08;;;;;;;;;;5092542;28;20040;-79
2022/03/18 14:00:27;;;;;;;6.80;2.75;;;;;;;;;;5092787;28;20044;-79
2022/03/18 14:03:19;;;;;;;6.22;2.78;;;;;;;;;;5111186;28;20112;-81
2022/03/18 14:05:46;;;;;;;6.45;2.78;;;;;;;;;;5107570;28;20048;-81
2022/03/18 14:08:21;;;;;;;7.70;3.45;;;;;;;;;;5110048;28;20043;-80
2022/03/18 14:10:48;;;;;;;8.60;3.33;;;;;;;;;;5089084;28;20047;-80
2022/03/18 14:13:14;;;;;;;6.20;3.38;;;;;;;;;;5108303;28;20036;-81
2022/03/18 14:15:41;;;;;;;11.02;3.63;;;;;;;;;;5092901;28;20040;-81
2022/03/18 14:18:14;;;;;;;8.48;3.83;;;;;;;;;;5093563;28;20040;-81
2022/03/18 14:20:52;;;;;;;8.98;3.55;;;;;;;;;;5110502;28;20073;-81
2022/03/18 14:23:18;;;;;;;10.50;3.97;;;;;;;;;;5111323;28;20028;-79
2022/03/18 14:25:44;;;;;;;8.60;4.30;;;;;;;;;;5111770;28;20040;-81
2022/03/18 14:28:15;;;;;;;10.88;4.35;;;;;;;;;;5107709;28;20040;-80
2022/03/18 14:30:42;;;;;;;8.63;4.00;;;;;;;;;;5089416;28;20060;-79
2022/03/18 14:33:08;;;;;;;10.25;4.45;;;;;;;;;;5087469;28;20065;-79
2022/03/18 14:35:34;;;;;;;10.52;4.72;;;;;;;;;;5092252;28;20455;-80
2022/03/18 14:38:00;;;;;;;12.65;5.10;;;;;;;;;;5110093;28;20039;-79
2022/03/18 14:40:26;;;;;;;8.77;4.78;;;;;;;;;;5109196;28;20105;-78
2022/03/18 14:42:52;;;;;;;13.60;5.05;;;;;;;;;;5089820;28;20043;-79
2022/03/18 14:45:18;;;;;;;12.70;4.95;;;;;;;;;;5107698;28;20036;-81
2022/03/18 14:47:46;;;;;;;9.93;4.78;;;;;;;;;;5089031;28;20051;-80
2022/03/18 14:50:12;;;;;;;11.85;4.80;;;;;;;;;;5089127;28;20040;-80
2022/03/18 14:52:38;;;;;;;10.60;4.53;;;;;;;;;;5093853;28;20032;-79
2022/03/18 14:57:50;;;;;;;10.18;4.40;;;;;;;;;;5109227;28;20451;-81
2022/03/18 15:00:16;;;;;;;10.48;4.82;;;;;;;;;;5107183;28;20048;-81
2022/03/18 15:02:42;;;;;;;12.10;5.10;;;;;;;;;;5090661;28;20067;-81
2022/03/18 15:05:08;;;;;;;12.25;4.55;;;;;;;;;;5107348;28;20127;-80